createdAt,value
2022-08-31T00:00:39.044Z,5.87
2022-08-31T00:03:27.057Z,6.10
2022-08-31T00:05:59.073Z,5.47
2022-08-31T00:08:29.633Z,7.23
2022-08-31T00:10:58.233Z,8.67
2022-08-31T00:13:28.259Z,5.37
2022-08-31T00:15:58.828Z,5.33
2022-08-31T00:18:29.005Z,5.37
2022-08-31T00:20:58.015Z,4.60
2022-08-31T00:23:26.755Z,6.17
2022-08-31T00:25:55.640Z,5.40
2022-08-31T00:28:24.484Z,5.20
2022-08-31T00:30:53.131Z,4.80
2022-08-31T00:33:21.773Z,5.43
2022-08-31T00:35:51.960Z,5.90
2022-08-31T00:38:24.682Z,5.60
2022-08-31T00:40:53.394Z,4.30
2022-08-31T00:43:41.175Z,5.57
2022-08-31T00:46:11.595Z,4.43
2022-08-31T00:48:43.218Z,4.53
2022-08-31T00:51:18.542Z,4.93
2022-08-31T00:53:50.851Z,5.10
2022-08-31T00:56:21.252Z,4.27
2022-08-31T00:58:54.794Z,3.93
2022-08-31T01:01:24.231Z,4.30
2022-08-31T01:03:52.999Z,4.13
2022-08-31T01:06:28.909Z,4.30
2022-08-31T01:09:00.135Z,5.77
2022-08-31T01:11:29.541Z,6.93
2022-08-31T01:13:58.438Z,5.07
2022-08-31T01:16:33.847Z,5.00
2022-08-31T01:19:06.751Z,6.23
2022-08-31T01:21:44.576Z,4.93
2022-08-31T01:24:15.830Z,5.50
2022-08-31T01:26:44.846Z,6.17
2022-08-31T01:29:24.962Z,4.50
2022-08-31T01:31:53.604Z,5.00
2022-08-31T01:34:22.677Z,4.13
2022-08-31T01:36:52.862Z,4.70
2022-08-31T01:39:23.730Z,5.53
2022-08-31T01:41:52.656Z,4.53
2022-08-31T01:44:23.394Z,4.53
2022-08-31T01:46:52.865Z,4.57
2022-08-31T01:49:24.176Z,5.20
2022-08-31T01:51:54.018Z,4.67
2022-08-31T01:54:26.734Z,3.60
2022-08-31T01:56:56.659Z,4.30
2022-08-31T01:59:33.949Z,4.07
2022-08-31T02:02:22.935Z,3.93
2022-08-31T02:04:52.361Z,4.13
2022-08-31T02:07:22.128Z,4.13
2022-08-31T02:09:53.692Z,4.10
2022-08-31T02:12:22.355Z,4.33
2022-08-31T02:14:51.371Z,3.60
2022-08-31T02:17:20.749Z,4.47
2022-08-31T02:19:49.391Z,4.20
2022-08-31T02:22:18.111Z,4.17
2022-08-31T02:24:46.814Z,4.20
2022-08-31T02:27:16.820Z,4.57
2022-08-31T02:29:45.893Z,4.63
2022-08-31T02:32:21.298Z,4.03
2022-08-31T02:34:50.168Z,4.00
2022-08-31T02:37:20.155Z,5.30
2022-08-31T02:39:51.711Z,3.87
2022-08-31T02:42:33.090Z,4.30
2022-08-31T02:45:18.026Z,3.80
2022-08-31T02:47:46.711Z,6.40
2022-08-31T02:50:42.466Z,4.30
2022-08-31T02:53:13.882Z,3.90
2022-08-31T02:55:44.335Z,4.13
2022-08-31T02:58:15.379Z,4.37
2022-08-31T03:00:48.348Z,3.83
2022-08-31T03:03:18.831Z,4.33
2022-08-31T03:05:47.842Z,4.57
2022-08-31T03:08:17.610Z,4.13
2022-08-31T03:10:48.902Z,4.00
2022-08-31T03:13:20.858Z,4.23
2022-08-31T03:15:49.826Z,3.90
2022-08-31T03:18:18.487Z,4.10
2022-08-31T03:20:47.241Z,4.17
2022-08-31T03:23:16.096Z,4.40
2022-08-31T03:25:44.743Z,4.17
2022-08-31T03:28:13.805Z,4.20
2022-08-31T03:30:48.703Z,4.40
2022-08-31T03:33:18.141Z,4.10
2022-08-31T03:35:47.164Z,4.40
2022-08-31T03:38:17.658Z,3.67
2022-08-31T03:40:46.312Z,3.87
2022-08-31T03:43:16.115Z,3.97
2022-08-31T03:45:45.964Z,3.53
2022-08-31T03:48:16.724Z,4.20
2022-08-31T03:50:46.939Z,4.17
2022-08-31T03:53:25.522Z,3.90
2022-08-31T03:56:02.033Z,4.07
2022-08-31T03:58:33.496Z,3.80
2022-08-31T04:01:05.996Z,4.20
2022-08-31T04:03:58.608Z,3.70
2022-08-31T04:06:47.843Z,4.67
2022-08-31T04:09:34.948Z,3.60
2022-08-31T04:12:21.948Z,4.17
2022-08-31T04:15:10.671Z,4.20
2022-08-31T04:17:59.592Z,4.30
2022-08-31T04:20:50.725Z,3.97
2022-08-31T04:23:19.761Z,3.80
2022-08-31T04:25:52.093Z,4.07
2022-08-31T04:28:20.877Z,3.87
2022-08-31T04:30:49.669Z,4.00
2022-08-31T04:33:19.087Z,3.70
2022-08-31T04:35:49.814Z,4.37
2022-08-31T04:38:19.231Z,4.03
2022-08-31T04:40:49.415Z,5.03
2022-08-31T04:43:21.250Z,5.70
2022-08-31T04:45:52.940Z,5.47
2022-08-31T04:48:21.911Z,6.53
2022-08-31T04:50:51.983Z,5.63
2022-08-31T04:53:20.690Z,6.03
2022-08-31T04:55:49.441Z,10.77
2022-08-31T04:58:20.592Z,4.83
2022-08-31T05:00:49.200Z,4.97
2022-08-31T05:03:23.876Z,4.87
2022-08-31T05:05:58.583Z,4.90
2022-08-31T05:08:29.111Z,5.27
2022-08-31T05:10:57.975Z,5.33
2022-08-31T05:13:28.201Z,5.17
2022-08-31T05:15:58.422Z,4.90
2022-08-31T05:18:27.076Z,7.33
2022-08-31T05:21:09.144Z,5.40
2022-08-31T05:23:39.257Z,6.63
2022-08-31T05:26:08.760Z,6.20
2022-08-31T05:28:37.468Z,7.60
2022-08-31T05:31:08.206Z,6.10
2022-08-31T05:33:43.332Z,4.73
2022-08-31T05:36:16.991Z,5.03
2022-08-31T05:38:46.366Z,5.03
2022-08-31T05:41:16.343Z,5.73
2022-08-31T05:43:45.185Z,5.33
2022-08-31T05:46:15.851Z,7.53
2022-08-31T05:48:49.616Z,6.13
2022-08-31T05:51:21.593Z,5.00
2022-08-31T05:53:50.875Z,5.53
2022-08-31T05:56:22.356Z,6.80
2022-08-31T05:58:55.054Z,5.93
2022-08-31T06:01:26.140Z,7.57
2022-08-31T06:04:17.713Z,4.70
2022-08-31T06:06:48.911Z,5.37
2022-08-31T06:09:21.663Z,6.17
2022-08-31T06:11:51.419Z,6.37
2022-08-31T06:14:21.901Z,6.13
2022-08-31T06:16:51.150Z,4.47
2022-08-31T06:19:21.913Z,5.10
2022-08-31T06:21:53.425Z,7.37
2022-08-31T06:24:27.474Z,11.00
2022-08-31T06:26:59.344Z,5.57
2022-08-31T06:29:34.463Z,5.40
2022-08-31T06:32:08.211Z,4.70
2022-08-31T06:34:40.728Z,4.93
2022-08-31T06:37:18.798Z,7.47
2022-08-31T06:40:27.531Z,8.37
2022-08-31T06:43:15.160Z,6.60
2022-08-31T06:45:58.771Z,5.80
2022-08-31T06:48:48.348Z,12.43
2022-08-31T06:51:17.107Z,9.70
2022-08-31T06:53:48.098Z,7.10
2022-08-31T06:56:36.219Z,5.17
2022-08-31T06:59:26.536Z,7.23
2022-08-31T07:02:21.718Z,5.27
2022-08-31T07:04:50.358Z,9.63
2022-08-31T07:07:19.034Z,6.07
2022-08-31T07:09:49.481Z,5.70
2022-08-31T07:12:18.468Z,11.03
2022-08-31T07:14:54.532Z,8.97
2022-08-31T07:17:25.009Z,7.10
2022-08-31T07:19:53.858Z,9.37
2022-08-31T07:22:23.428Z,9.40
2022-08-31T07:24:58.886Z,13.53
2022-08-31T07:27:30.296Z,6.20
2022-08-31T07:30:01.630Z,8.67
2022-08-31T07:32:34.763Z,6.63
2022-08-31T07:35:04.155Z,7.17
2022-08-31T07:37:50.449Z,6.50
2022-08-31T07:40:42.320Z,6.70
2022-08-31T07:43:13.130Z,5.40
2022-08-31T07:45:44.222Z,5.80
2022-08-31T07:48:17.109Z,6.40
2022-08-31T07:51:06.599Z,6.03
2022-08-31T07:53:47.765Z,5.93
2022-08-31T07:56:34.693Z,5.87
2022-08-31T07:59:15.273Z,6.80
2022-08-31T08:01:48.336Z,7.10
2022-08-31T08:04:25.463Z,6.67
2022-08-31T08:07:17.638Z,7.73
2022-08-31T08:10:15.771Z,7.67
2022-08-31T08:13:13.531Z,7.23
2022-08-31T08:15:56.377Z,6.27
2022-08-31T08:18:46.989Z,8.23
2022-08-31T08:21:20.157Z,7.47
2022-08-31T08:23:49.570Z,7.30
2022-08-31T08:26:36.896Z,9.50
2022-08-31T08:29:29.175Z,6.60
2022-08-31T08:32:04.120Z,5.90
2022-08-31T08:34:34.376Z,6.07
2022-08-31T08:37:07.922Z,6.70
2022-08-31T08:39:36.818Z,8.20
2022-08-31T08:42:14.875Z,6.73
2022-08-31T08:44:46.330Z,8.03
2022-08-31T08:47:20.948Z,7.20
2022-08-31T08:50:03.839Z,5.30
2022-08-31T08:52:42.778Z,5.20
2022-08-31T08:55:15.714Z,5.70
2022-08-31T08:57:47.182Z,6.20
2022-08-31T09:00:23.290Z,6.37
2022-08-31T09:03:01.310Z,6.57
2022-08-31T09:06:09.776Z,6.07
2022-08-31T09:09:09.368Z,5.70
2022-08-31T09:11:55.114Z,5.50
2022-08-31T09:14:36.731Z,5.60
2022-08-31T09:17:17.188Z,5.70
2022-08-31T09:20:06.229Z,5.37
2022-08-31T09:22:47.244Z,6.60
2022-08-31T09:25:19.195Z,5.87
2022-08-31T09:28:15.323Z,5.90
2022-08-31T09:30:52.605Z,5.80
2022-08-31T09:33:26.143Z,7.78
2022-08-31T09:35:58.360Z,5.72
2022-08-31T09:38:32.752Z,6.40
2022-08-31T09:41:03.858Z,5.35
2022-08-31T09:43:41.103Z,7.13
2022-08-31T09:46:13.026Z,5.68
2022-08-31T09:48:48.862Z,5.63
2022-08-31T09:51:24.691Z,6.47
2022-08-31T09:54:11.668Z,7.03
2022-08-31T09:56:55.623Z,6.45
2022-08-31T09:59:38.519Z,6.13
2022-08-31T10:02:12.224Z,6.35
2022-08-31T10:04:54.682Z,5.93
2022-08-31T10:07:37.779Z,6.53
2022-08-31T10:10:27.929Z,6.05
2022-08-31T10:13:05.393Z,6.93
2022-08-31T10:15:41.340Z,5.55
2022-08-31T10:18:16.371Z,5.15
2022-08-31T10:20:51.872Z,5.28
2022-08-31T10:23:27.558Z,6.32
2022-08-31T10:26:02.422Z,7.50
2022-08-31T10:28:37.384Z,8.60
2022-08-31T10:31:13.758Z,10.70
2022-08-31T10:34:06.587Z,9.32
2022-08-31T10:36:40.601Z,6.70
2022-08-31T10:39:20.499Z,6.88
2022-08-31T10:41:51.372Z,8.50
2022-08-31T10:44:26.394Z,7.85
2022-08-31T10:46:59.131Z,5.40
2022-08-31T10:49:28.296Z,7.18
2022-08-31T10:52:05.455Z,5.50
2022-08-31T10:54:44.891Z,4.60
2022-08-31T10:57:32.184Z,7.30
2022-08-31T11:00:06.623Z,5.25
2022-08-31T11:02:50.421Z,6.47
2022-08-31T11:05:32.720Z,6.07
2022-08-31T11:08:15.999Z,6.13
2022-08-31T11:10:49.814Z,6.70
2022-08-31T11:13:41.390Z,5.05
2022-08-31T11:16:22.036Z,5.70
2022-08-31T11:19:21.140Z,5.07
2022-08-31T11:22:11.907Z,5.43
2022-08-31T11:25:21.359Z,5.10
2022-08-31T11:27:55.138Z,5.97
2022-08-31T11:30:29.150Z,7.20
2022-08-31T11:33:03.226Z,6.50
2022-08-31T11:36:06.796Z,5.80
2022-08-31T11:38:48.010Z,5.35
2022-08-31T11:41:41.415Z,6.90
2022-08-31T11:44:11.352Z,6.63
2022-08-31T11:47:08.815Z,5.38
2022-08-31T11:49:46.140Z,6.25
2022-08-31T11:52:32.213Z,6.78
2022-08-31T11:55:16.528Z,6.60
2022-08-31T11:58:23.634Z,5.90
2022-08-31T12:00:59.415Z,7.85
2022-08-31T12:03:56.819Z,6.60
2022-08-31T12:07:07.979Z,6.07
2022-08-31T12:10:09.627Z,6.53
2022-08-31T12:13:07.647Z,7.28
2022-08-31T12:15:53.092Z,5.18
2022-08-31T12:18:40.577Z,5.57
2022-08-31T12:21:31.371Z,5.47
2022-08-31T12:24:15.352Z,5.28
2022-08-31T12:27:18.806Z,5.50
2022-08-31T12:29:47.967Z,5.07
2022-08-31T12:32:26.934Z,6.00
2022-08-31T12:35:11.530Z,5.50
2022-08-31T12:37:41.090Z,6.78
2022-08-31T12:40:13.606Z,4.63
2022-08-31T12:42:53.099Z,6.68
2022-08-31T12:45:29.133Z,4.35
2022-08-31T12:48:07.866Z,4.13
2022-08-31T12:50:45.915Z,3.88
2022-08-31T12:53:36.518Z,4.13
2022-08-31T12:56:13.087Z,3.63
2022-08-31T12:58:57.885Z,3.60
2022-08-31T13:01:28.375Z,4.35
2022-08-31T13:04:00.923Z,3.78
2022-08-31T13:06:33.135Z,3.40
2022-08-31T13:09:03.682Z,3.28
2022-08-31T13:11:40.754Z,3.85
2022-08-31T13:14:15.395Z,3.38
2022-08-31T13:16:46.837Z,6.03
2022-08-31T13:19:26.017Z,3.65
2022-08-31T13:22:02.116Z,5.10
2022-08-31T13:24:37.023Z,3.25
2022-08-31T13:27:08.270Z,4.22
2022-08-31T13:29:45.263Z,4.15
2022-08-31T13:32:32.528Z,4.63
2022-08-31T13:35:04.494Z,7.65
2022-08-31T13:37:39.125Z,4.68
2022-08-31T13:40:12.321Z,5.35
2022-08-31T13:42:45.750Z,5.90
2022-08-31T13:45:26.691Z,4.90
2022-08-31T13:47:59.199Z,4.63
2022-08-31T13:50:34.227Z,5.20
2022-08-31T13:55:55.557Z,4.32
2022-08-31T13:58:28.909Z,4.50
2022-08-31T14:01:23.172Z,4.53
2022-08-31T14:03:58.488Z,4.10
2022-08-31T14:06:30.178Z,4.45
2022-08-31T14:09:05.810Z,4.68
2022-08-31T14:11:35.729Z,4.40
2022-08-31T14:14:07.547Z,4.75
2022-08-31T14:16:40.178Z,4.10
2022-08-31T14:19:13.534Z,4.60
2022-08-31T14:21:46.134Z,3.65
2022-08-31T14:24:16.750Z,4.05
2022-08-31T14:26:47.068Z,4.18
2022-08-31T14:29:18.042Z,4.28
2022-08-31T14:31:52.476Z,4.93
2022-08-31T14:34:27.505Z,4.05
2022-08-31T14:37:02.594Z,3.88
2022-08-31T14:39:34.559Z,3.78
2022-08-31T14:42:07.389Z,3.90
2022-08-31T14:44:39.075Z,4.22
2022-08-31T14:47:08.467Z,4.05
2022-08-31T14:49:37.341Z,4.25
2022-08-31T14:52:07.171Z,4.15
2022-08-31T14:54:37.925Z,5.20
2022-08-31T14:57:12.508Z,7.03
2022-08-31T14:59:43.948Z,4.90
2022-08-31T15:02:16.495Z,4.45
2022-08-31T15:04:46.007Z,4.15
2022-08-31T15:07:16.246Z,4.40
2022-08-31T15:09:50.234Z,4.85
2022-08-31T15:12:19.533Z,5.18
2022-08-31T15:14:48.205Z,5.18
2022-08-31T15:17:19.174Z,5.30
2022-08-31T15:19:52.261Z,5.18
2022-08-31T15:22:21.072Z,5.57
2022-08-31T15:24:51.130Z,6.80
2022-08-31T15:27:21.671Z,6.22
2022-08-31T15:29:59.268Z,5.18
2022-08-31T15:32:28.858Z,6.72
2022-08-31T15:34:58.371Z,6.25
2022-08-31T15:37:31.680Z,6.93
2022-08-31T15:40:05.413Z,7.28
2022-08-31T15:42:38.433Z,5.90
2022-08-31T15:45:08.792Z,8.32
2022-08-31T15:47:57.663Z,6.88
2022-08-31T15:50:31.888Z,6.45
2022-08-31T15:53:08.726Z,7.10
2022-08-31T15:55:40.719Z,6.75
2022-08-31T15:58:10.868Z,5.80
2022-08-31T16:00:42.238Z,6.13
2022-08-31T16:03:12.881Z,5.80
2022-08-31T16:05:43.660Z,7.80
2022-08-31T16:08:14.441Z,6.15
2022-08-31T16:10:46.693Z,6.00
2022-08-31T16:13:16.344Z,6.68
2022-08-31T16:15:51.155Z,5.32
2022-08-31T16:18:21.326Z,5.63
2022-08-31T16:20:52.197Z,5.53
2022-08-31T16:23:21.169Z,5.55
2022-08-31T16:25:51.203Z,6.25
2022-08-31T16:28:21.935Z,5.50
2022-08-31T16:30:51.974Z,5.30
2022-08-31T16:33:21.398Z,5.93
2022-08-31T16:35:50.415Z,6.43
2022-08-31T16:38:19.456Z,5.70
2022-08-31T16:40:53.340Z,5.63
2022-08-31T16:43:22.143Z,5.65
2022-08-31T16:45:50.845Z,6.40
2022-08-31T16:48:37.108Z,5.63
2022-08-31T16:51:15.092Z,8.43
2022-08-31T16:53:47.701Z,16.60
2022-08-31T16:56:18.606Z,10.98
2022-08-31T16:58:52.212Z,7.68
2022-08-31T17:01:23.963Z,7.15
2022-08-31T17:03:56.031Z,8.05
2022-08-31T17:06:25.753Z,10.38
2022-08-31T17:08:55.793Z,6.60
2022-08-31T17:11:31.386Z,5.40
2022-08-31T17:14:02.325Z,8.65
2022-08-31T17:16:34.748Z,5.68
2022-08-31T17:19:08.185Z,6.72
2022-08-31T17:21:49.579Z,8.80
2022-08-31T17:24:21.777Z,6.57
2022-08-31T17:26:55.927Z,6.07
2022-08-31T17:29:24.653Z,6.93
2022-08-31T17:31:56.332Z,6.35
2022-08-31T17:34:28.192Z,6.75
2022-08-31T17:36:59.251Z,14.00
2022-08-31T17:39:29.123Z,6.63
2022-08-31T17:41:59.423Z,8.02
2022-08-31T17:44:31.084Z,10.45
2022-08-31T17:47:03.784Z,6.40
2022-08-31T17:49:37.948Z,10.45
2022-08-31T17:52:08.617Z,7.40
2022-08-31T17:54:40.388Z,12.37
2022-08-31T17:57:13.074Z,5.90
2022-08-31T17:59:44.244Z,6.68
2022-08-31T18:02:15.106Z,7.60
2022-08-31T18:04:44.478Z,6.07
2022-08-31T18:07:14.829Z,5.75
2022-08-31T18:09:45.657Z,7.68
2022-08-31T18:12:18.254Z,15.88
2022-08-31T18:14:47.037Z,15.30
2022-08-31T18:17:17.265Z,11.23
2022-08-31T18:19:47.067Z,12.95
2022-08-31T18:22:18.466Z,15.07
2022-08-31T18:24:47.222Z,19.67
2022-08-31T18:27:17.238Z,8.65
2022-08-31T18:29:47.004Z,11.00
2022-08-31T18:32:15.996Z,16.10
2022-08-31T18:34:47.302Z,9.57
2022-08-31T18:37:25.914Z,22.57
2022-08-31T18:40:12.307Z,28.07
2022-08-31T18:43:00.019Z,9.77
2022-08-31T18:45:30.923Z,10.20
2022-08-31T18:50:50.753Z,12.80
2022-08-31T18:53:28.852Z,16.97
2022-08-31T18:56:00.673Z,11.70
2022-08-31T18:58:30.676Z,10.60
2022-08-31T19:01:00.121Z,12.63
2022-08-31T19:03:29.212Z,16.87
2022-08-31T19:05:58.484Z,12.87
2022-08-31T19:08:28.321Z,14.60
2022-08-31T19:10:58.271Z,11.67
2022-08-31T19:13:31.592Z,11.80
2022-08-31T19:16:14.626Z,16.07
2022-08-31T19:18:45.230Z,11.70
2022-08-31T19:21:15.830Z,11.10
2022-08-31T19:23:44.483Z,11.30
2022-08-31T19:26:19.634Z,10.97
2022-08-31T19:28:51.177Z,14.50
2022-08-31T19:31:22.463Z,14.07
2022-08-31T19:33:56.672Z,11.87
2022-08-31T19:36:27.386Z,11.57
2022-08-31T19:38:57.618Z,11.37
2022-08-31T19:41:27.790Z,9.37
2022-08-31T19:44:07.717Z,8.67
2022-08-31T19:46:39.783Z,9.30
2022-08-31T19:49:11.185Z,11.23
2022-08-31T19:51:42.047Z,9.77
2022-08-31T19:54:12.934Z,14.77
2022-08-31T19:56:43.809Z,10.63
2022-08-31T19:59:18.332Z,11.47
2022-08-31T20:01:52.340Z,10.97
2022-08-31T20:04:24.666Z,11.73
2022-08-31T20:06:53.273Z,10.17
2022-08-31T20:09:23.583Z,10.67
2022-08-31T20:11:54.198Z,10.23
2022-08-31T20:14:23.775Z,10.73
2022-08-31T20:16:54.995Z,12.70
2022-08-31T20:19:25.798Z,10.93
2022-08-31T20:21:55.858Z,12.90
2022-08-31T20:24:26.843Z,15.53
2022-08-31T20:27:01.762Z,9.63
2022-08-31T20:29:38.304Z,9.50
2022-08-31T20:32:08.396Z,11.00
2022-08-31T20:34:38.357Z,9.97
2022-08-31T20:37:07.624Z,10.10
2022-08-31T20:39:38.380Z,10.67
2022-08-31T20:42:07.858Z,11.37
2022-08-31T20:44:38.807Z,10.17
2022-08-31T20:47:28.812Z,12.43
2022-08-31T20:50:00.282Z,13.07
2022-08-31T20:52:34.950Z,12.67
2022-08-31T20:55:06.611Z,8.30
2022-08-31T20:57:37.725Z,8.83
2022-08-31T21:00:10.244Z,10.00
2022-08-31T21:02:41.008Z,11.90
2022-08-31T21:05:37.419Z,15.73
2022-08-31T21:08:02.651Z,11.20
2022-08-31T21:10:36.378Z,12.77
2022-08-31T21:13:11.384Z,8.60
2022-08-31T21:15:45.337Z,10.17
2022-08-31T21:18:17.677Z,9.57
2022-08-31T21:20:47.408Z,9.70
2022-08-31T21:23:16.035Z,10.93
2022-08-31T21:25:46.393Z,10.73
2022-08-31T21:28:17.529Z,10.03
2022-08-31T21:30:49.428Z,12.70
2022-08-31T21:33:19.930Z,9.43
2022-08-31T21:35:48.973Z,15.53
2022-08-31T21:38:18.311Z,11.93
2022-08-31T21:40:50.592Z,10.37
2022-08-31T21:43:19.746Z,9.27
2022-08-31T21:45:48.412Z,9.53
2022-08-31T21:48:26.464Z,10.17
2022-08-31T21:50:55.763Z,9.77
2022-08-31T21:53:25.880Z,10.00
2022-08-31T21:55:55.082Z,10.93
2022-08-31T21:58:23.734Z,11.33
2022-08-31T22:00:52.650Z,9.97
2022-08-31T22:03:22.624Z,10.27
2022-08-31T22:05:53.248Z,9.83
2022-08-31T22:08:26.486Z,11.13
2022-08-31T22:10:55.596Z,11.80
2022-08-31T22:13:24.105Z,11.47
2022-08-31T22:15:52.891Z,8.73
2022-08-31T22:21:16.471Z,8.60
2022-08-31T22:23:45.556Z,9.63
2022-08-31T22:26:14.569Z,11.77
2022-08-31T22:28:43.989Z,8.47
2022-08-31T22:31:12.761Z,7.67
2022-08-31T22:33:47.233Z,7.60
2022-08-31T22:36:19.634Z,9.40
2022-08-31T22:39:03.262Z,9.70
2022-08-31T22:41:32.891Z,9.40
2022-08-31T22:44:01.927Z,7.03
2022-08-31T22:46:30.640Z,7.53
2022-08-31T22:48:59.614Z,7.20
2022-08-31T22:51:29.711Z,7.23
2022-08-31T22:53:58.531Z,6.50
2022-08-31T22:56:29.924Z,6.67
2022-08-31T22:59:00.266Z,6.80
2022-08-31T23:01:31.309Z,6.83
2022-08-31T23:04:06.655Z,7.20
2022-08-31T23:06:39.156Z,7.97
2022-08-31T23:09:10.139Z,7.53
2022-08-31T23:11:39.994Z,7.60
2022-08-31T23:14:10.469Z,6.90
2022-08-31T23:16:42.386Z,6.60
2022-08-31T23:19:17.216Z,6.73
2022-08-31T23:21:53.019Z,6.43
2022-08-31T23:24:29.921Z,6.27
2022-08-31T23:27:04.219Z,7.40
2022-08-31T23:29:36.387Z,7.40
2022-08-31T23:32:05.411Z,7.10
2022-08-31T23:34:38.590Z,6.67
2022-08-31T23:37:10.197Z,6.97
2022-08-31T23:39:44.282Z,6.20
2022-08-31T23:42:16.262Z,6.07
2022-08-31T23:44:46.623Z,6.90
2022-08-31T23:47:17.523Z,7.13
2022-08-31T23:49:47.210Z,7.57
2022-08-31T23:52:19.682Z,7.87
2022-08-31T23:54:52.453Z,6.57
2022-08-31T23:57:31.799Z,6.10
